Colts Neck, New Jersey
Current Conditions -  °F | °C
As of 6:55 PM on Wednesday 22 Oct 2014 (Local Time) from KBLM Reporting Station
Overcast Overcast  
Wind Chill: 52°   Ceiling: 1700
Heat Index: 52°   Visibility: 7mi
Dew Point: 46°   Wind: 17mph
Humidity: 82%   Direction: 350°N
Pressure: 29.78"   Gusts: 25mph
Location:  40.29°N, 74.17°W
Report Text: KBLM 222255Z AUTO 35015G22KT 7SM FEW011 BKN017 OVC024 11/08 A2978 RMK AO1 P0008
Loading
Personal Weather Stations






























Interactive Weather Map
Tropical Storm Tracking
New forecast layout! Learn more

10-Day Weather Forecast

Advertisements
Track Severe Weather on mobile